createdAt,value
2019-03-16T00:00:28.806Z,96.00
2019-03-16T00:02:57.561Z,96.00
2019-03-16T00:05:26.480Z,95.80
2019-03-16T00:07:55.321Z,95.80
2019-03-16T00:10:24.155Z,95.70
2019-03-16T00:12:52.969Z,95.70
2019-03-16T00:15:21.815Z,95.80
2019-03-16T00:17:50.622Z,95.80
2019-03-16T00:20:19.437Z,96.00
2019-03-16T00:22:48.170Z,96.00
2019-03-16T00:25:17.030Z,96.10
2019-03-16T00:27:45.807Z,96.10
2019-03-16T00:30:15.317Z,96.30
2019-03-16T00:32:44.114Z,96.30
2019-03-16T00:35:12.948Z,96.10
2019-03-16T00:37:41.697Z,96.20
2019-03-16T00:40:14.589Z,96.20
2019-03-16T00:42:43.451Z,96.40
2019-03-16T00:45:13.201Z,96.40
2019-03-16T00:47:42.031Z,96.30
2019-03-16T00:50:14.528Z,96.50
2019-03-16T00:52:43.309Z,96.40
2019-03-16T00:55:12.839Z,96.30
2019-03-16T00:57:41.687Z,96.10
2019-03-16T01:00:12.537Z,96.20
2019-03-16T01:02:41.559Z,96.10
2019-03-16T01:05:10.556Z,96.10
2019-03-16T01:07:39.409Z,96.10
2019-03-16T01:10:10.597Z,96.10
2019-03-16T01:12:39.405Z,96.50
2019-03-16T01:15:10.938Z,96.00
2019-03-16T01:17:39.780Z,96.10
2019-03-16T01:20:13.290Z,96.10
2019-03-16T01:22:42.212Z,96.50
2019-03-16T01:25:12.996Z,96.70
2019-03-16T01:27:41.761Z,96.70
2019-03-16T01:30:17.493Z,96.90
2019-03-16T01:32:46.352Z,97.00
2019-03-16T01:35:15.159Z,96.90
2019-03-16T01:37:44.048Z,97.00
2019-03-16T01:40:12.962Z,97.10
2019-03-16T01:42:41.753Z,97.20
2019-03-16T01:45:11.412Z,97.40
2019-03-16T01:47:40.242Z,97.50
2019-03-16T01:50:10.587Z,97.30
2019-03-16T01:52:39.386Z,97.10
2019-03-16T01:55:09.367Z,96.90
2019-03-16T01:57:38.246Z,97.10
2019-03-16T02:00:14.685Z,96.90
2019-03-16T02:02:54.456Z,97.20
2019-03-16T02:05:13.963Z,97.10
2019-03-16T02:07:42.775Z,97.10
2019-03-16T02:10:11.548Z,96.80
2019-03-16T02:12:40.423Z,96.90
2019-03-16T02:15:09.438Z,96.70
2019-03-16T02:17:38.191Z,96.50
2019-03-16T02:20:08.769Z,96.50
2019-03-16T02:22:37.733Z,96.60
2019-03-16T02:25:07.649Z,96.40
2019-03-16T02:27:36.536Z,96.30
2019-03-16T02:30:08.326Z,96.40
2019-03-16T02:32:37.187Z,96.40
2019-03-16T02:35:07.314Z,96.40
2019-03-16T02:37:36.077Z,96.20
2019-03-16T02:40:07.160Z,96.20
2019-03-16T02:42:35.957Z,96.40
2019-03-16T02:45:07.285Z,96.20
2019-03-16T02:47:36.014Z,96.00
2019-03-16T02:50:06.915Z,96.00
2019-03-16T02:52:35.728Z,96.10
2019-03-16T02:55:06.325Z,96.10
2019-03-16T02:57:35.122Z,96.20
2019-03-16T03:00:05.656Z,96.30
2019-03-16T03:02:34.737Z,96.30
2019-03-16T03:05:04.096Z,96.20
2019-03-16T03:07:33.015Z,96.60
2019-03-16T03:10:01.787Z,96.40
2019-03-16T03:12:30.617Z,96.20
2019-03-16T03:14:59.494Z,96.20
2019-03-16T03:17:28.368Z,96.40
2019-03-16T03:19:57.142Z,96.30
2019-03-16T03:22:26.040Z,96.20
2019-03-16T03:24:54.893Z,96.40
2019-03-16T03:27:23.687Z,96.40
2019-03-16T03:29:56.816Z,96.50
2019-03-16T03:32:23.131Z,96.40
2019-03-16T03:34:51.881Z,96.20
2019-03-16T03:37:20.690Z,96.00
2019-03-16T03:39:49.509Z,96.00
2019-03-16T03:42:18.440Z,95.80
2019-03-16T03:44:47.269Z,95.70
2019-03-16T03:47:16.119Z,95.80
2019-03-16T03:49:45.018Z,95.60
2019-03-16T03:52:13.798Z,95.70
2019-03-16T03:54:42.599Z,95.70
2019-03-16T03:57:11.388Z,95.70
2019-03-16T03:59:40.199Z,95.70
2019-03-16T04:02:09.018Z,95.50
2019-03-16T04:04:38.059Z,95.50
2019-03-16T04:07:06.948Z,95.30
2019-03-16T04:09:43.271Z,95.40
2019-03-16T04:12:12.182Z,95.50
2019-03-16T04:14:41.070Z,95.50
2019-03-16T04:17:09.914Z,95.50
2019-03-16T04:19:38.754Z,95.40
2019-03-16T04:22:07.643Z,95.30
2019-03-16T04:24:36.388Z,95.20
2019-03-16T04:27:16.075Z,95.20
2019-03-16T04:29:35.761Z,95.30
2019-03-16T04:32:04.579Z,95.30
2019-03-16T04:34:33.460Z,95.40
2019-03-16T04:37:02.361Z,95.30
2019-03-16T04:39:31.173Z,95.20
2019-03-16T04:42:00.028Z,95.20
2019-03-16T04:44:28.768Z,95.20
2019-03-16T04:46:57.710Z,95.20
2019-03-16T04:49:26.630Z,95.40
2019-03-16T04:51:55.520Z,95.40
2019-03-16T04:54:24.417Z,95.50
2019-03-16T04:56:53.323Z,95.60
2019-03-16T04:59:22.119Z,95.30
2019-03-16T05:01:51.069Z,95.40
2019-03-16T05:04:19.868Z,95.40
2019-03-16T05:06:48.739Z,95.50
2019-03-16T05:09:17.636Z,95.60
2019-03-16T05:11:46.455Z,95.60
2019-03-16T05:14:15.297Z,95.80
2019-03-16T05:16:44.099Z,95.80
2019-03-16T05:19:13.034Z,95.70
2019-03-16T05:21:41.844Z,95.90
2019-03-16T05:24:10.798Z,95.50
2019-03-16T05:26:39.601Z,95.40
2019-03-16T05:29:08.529Z,95.50
2019-03-16T05:31:37.367Z,95.70
2019-03-16T05:34:06.211Z,95.80
2019-03-16T05:36:35.084Z,95.90
2019-03-16T05:39:05.405Z,96.10
2019-03-16T05:41:34.317Z,95.70
2019-03-16T05:44:03.178Z,95.80
2019-03-16T05:46:31.994Z,95.90
2019-03-16T05:49:00.789Z,95.60
2019-03-16T05:51:29.635Z,95.50
2019-03-16T05:53:58.519Z,94.90
2019-03-16T05:56:27.338Z,94.60
2019-03-16T05:58:56.156Z,94.50
2019-03-16T06:01:25.006Z,94.30
2019-03-16T06:03:53.977Z,94.20
2019-03-16T06:06:22.816Z,94.20
2019-03-16T06:08:51.681Z,94.20
2019-03-16T06:11:20.560Z,94.00
2019-03-16T06:13:49.380Z,93.80
2019-03-16T06:16:18.229Z,93.80
2019-03-16T06:18:47.067Z,93.70
2019-03-16T06:21:15.929Z,94.10
2019-03-16T06:23:44.827Z,94.00
2019-03-16T06:26:13.662Z,94.00
2019-03-16T06:28:42.522Z,94.00
2019-03-16T06:31:11.366Z,93.70
2019-03-16T06:33:40.151Z,93.90
2019-03-16T06:36:09.025Z,93.70
2019-03-16T06:38:37.889Z,93.70
2019-03-16T06:41:06.823Z,93.70
2019-03-16T06:43:35.653Z,93.60
2019-03-16T06:46:04.515Z,93.70
2019-03-16T06:48:33.425Z,93.60
2019-03-16T06:51:02.311Z,93.30
2019-03-16T06:53:31.182Z,93.20
2019-03-16T06:56:00.053Z,93.10
2019-03-16T06:58:28.873Z,93.00
2019-03-16T07:00:57.715Z,93.00
2019-03-16T07:03:26.648Z,93.30
2019-03-16T07:05:55.555Z,93.30
2019-03-16T07:08:24.355Z,93.30
2019-03-16T07:10:53.248Z,93.40
2019-03-16T07:13:22.040Z,93.40
2019-03-16T07:15:50.909Z,93.30
2019-03-16T07:18:19.812Z,93.30
2019-03-16T07:20:48.690Z,93.40
2019-03-16T07:23:17.607Z,93.00
2019-03-16T07:25:46.478Z,93.00
2019-03-16T07:28:15.282Z,92.90
2019-03-16T07:30:44.135Z,93.00
2019-03-16T07:33:13.008Z,92.60
2019-03-16T07:35:41.844Z,92.70
2019-03-16T07:38:10.755Z,92.40
2019-03-16T07:40:39.621Z,92.10
2019-03-16T07:43:08.444Z,92.10
2019-03-16T07:45:37.358Z,92.10
2019-03-16T07:48:06.355Z,91.40
2019-03-16T07:50:35.284Z,91.20
2019-03-16T07:53:04.125Z,91.00
2019-03-16T07:55:32.979Z,91.10
2019-03-16T07:58:01.873Z,90.90
2019-03-16T08:00:30.707Z,90.60
2019-03-16T08:02:59.579Z,90.80
2019-03-16T08:05:28.549Z,90.70
2019-03-16T08:07:57.455Z,90.70
2019-03-16T08:10:26.250Z,90.60
2019-03-16T08:12:55.112Z,90.40
2019-03-16T08:15:23.958Z,90.30
2019-03-16T08:17:52.853Z,90.10
2019-03-16T08:20:21.688Z,90.00
2019-03-16T08:22:50.553Z,89.80
2019-03-16T08:25:19.439Z,88.70
2019-03-16T08:27:54.180Z,88.70
2019-03-16T08:30:18.771Z,88.50
2019-03-16T08:32:47.682Z,89.40
2019-03-16T08:35:16.536Z,90.00
2019-03-16T08:37:45.452Z,90.20
2019-03-16T08:40:14.339Z,90.00
2019-03-16T08:42:43.194Z,90.10
2019-03-16T08:45:12.296Z,89.30
2019-03-16T08:47:41.148Z,88.90
2019-03-16T08:50:11.121Z,89.40
2019-03-16T08:52:40.034Z,90.30
2019-03-16T08:55:10.093Z,90.30
2019-03-16T08:57:38.955Z,90.50
2019-03-16T09:00:10.674Z,89.80
2019-03-16T09:02:39.533Z,88.50
2019-03-16T09:05:08.960Z,85.50
2019-03-16T09:07:37.875Z,84.60
2019-03-16T09:10:09.165Z,84.70
2019-03-16T09:12:37.991Z,83.10
2019-03-16T09:15:16.711Z,81.70
2019-03-16T09:17:45.575Z,80.60
2019-03-16T09:20:14.327Z,79.20
2019-03-16T09:22:43.338Z,79.90
2019-03-16T09:25:12.148Z,80.10
2019-03-16T09:27:41.014Z,79.80
2019-03-16T09:30:12.706Z,79.70
2019-03-16T09:32:41.596Z,81.60
2019-03-16T09:35:10.463Z,81.40
2019-03-16T09:37:39.406Z,81.20
2019-03-16T09:40:11.527Z,78.70
2019-03-16T09:42:40.297Z,77.30
2019-03-16T09:45:11.203Z,76.10
2019-03-16T09:47:40.025Z,76.20
2019-03-16T09:50:12.085Z,77.50
2019-03-16T09:52:40.976Z,77.50
2019-03-16T09:55:13.376Z,77.90
2019-03-16T09:57:42.143Z,78.10
2019-03-16T10:00:15.506Z,78.20
2019-03-16T10:02:44.384Z,78.70
2019-03-16T10:05:13.493Z,79.70
2019-03-16T10:07:42.440Z,81.80
2019-03-16T10:10:15.031Z,83.40
2019-03-16T10:12:43.816Z,84.50
2019-03-16T10:15:14.402Z,85.90
2019-03-16T10:17:43.307Z,87.50
2019-03-16T10:20:13.599Z,88.50
2019-03-16T10:22:42.475Z,88.90
2019-03-16T10:25:11.383Z,89.30
2019-03-16T10:27:40.132Z,90.00
2019-03-16T10:30:13.108Z,90.10
2019-03-16T10:32:41.973Z,90.40
2019-03-16T10:35:10.939Z,90.70
2019-03-16T10:37:39.816Z,90.70
2019-03-16T10:40:10.983Z,90.70
2019-03-16T10:42:39.791Z,90.80
2019-03-16T10:45:10.019Z,90.80
2019-03-16T10:47:38.837Z,90.90
2019-03-16T10:50:10.243Z,91.10
2019-03-16T10:52:39.107Z,91.00
2019-03-16T10:55:08.700Z,90.70
2019-03-16T10:57:37.544Z,90.40
2019-03-16T11:00:12.188Z,90.30
2019-03-16T11:02:41.000Z,89.80
2019-03-16T11:05:09.874Z,89.30
2019-03-16T11:07:38.713Z,89.60
2019-03-16T11:10:12.002Z,89.40
2019-03-16T11:12:40.785Z,89.00
2019-03-16T11:15:11.119Z,88.80
2019-03-16T11:17:39.968Z,88.40
2019-03-16T11:20:13.431Z,88.30
2019-03-16T11:22:42.299Z,87.80
2019-03-16T11:25:11.412Z,87.50
2019-03-16T11:27:40.188Z,88.10
2019-03-16T11:30:13.825Z,87.70
2019-03-16T11:32:42.659Z,87.70
2019-03-16T11:35:12.139Z,86.90
2019-03-16T11:37:40.989Z,85.50
2019-03-16T11:40:17.799Z,84.90
2019-03-16T11:42:46.666Z,83.80
2019-03-16T11:45:17.120Z,82.50
2019-03-16T11:47:45.883Z,82.00
2019-03-16T11:50:14.783Z,81.60
2019-03-16T11:52:43.647Z,81.00
2019-03-16T11:55:12.402Z,79.90
2019-03-16T11:57:41.324Z,78.50
2019-03-16T12:00:14.952Z,77.60
2019-03-16T12:02:43.773Z,76.40
2019-03-16T12:05:12.765Z,76.30
2019-03-16T12:07:41.614Z,75.90
2019-03-16T12:10:14.684Z,75.40
2019-03-16T12:12:43.609Z,75.50
2019-03-16T12:15:13.252Z,76.10
2019-03-16T12:17:42.031Z,76.60
2019-03-16T12:20:12.342Z,76.10
2019-03-16T12:22:41.110Z,77.00
2019-03-16T12:25:09.917Z,76.60
2019-03-16T12:27:38.812Z,76.60
2019-03-16T12:30:12.756Z,76.40
2019-03-16T12:32:43.606Z,76.50
2019-03-16T12:35:12.477Z,75.40
2019-03-16T12:37:41.364Z,74.90
2019-03-16T12:40:12.352Z,74.60
2019-03-16T12:42:41.230Z,74.40
2019-03-16T12:45:12.947Z,74.10
2019-03-16T12:47:41.755Z,74.20
2019-03-16T12:50:11.148Z,74.10
2019-03-16T12:52:39.975Z,74.20
2019-03-16T12:55:10.322Z,74.20
2019-03-16T12:57:39.307Z,73.50
2019-03-16T13:00:18.575Z,74.40
2019-03-16T13:02:47.448Z,74.60
2019-03-16T13:05:16.319Z,74.00
2019-03-16T13:07:45.114Z,73.70
2019-03-16T13:10:16.205Z,74.30
2019-03-16T13:12:45.046Z,73.80
2019-03-16T13:15:13.945Z,74.40
2019-03-16T13:17:42.807Z,74.40
2019-03-16T13:20:13.678Z,74.40
2019-03-16T13:22:42.460Z,74.60
2019-03-16T13:25:11.889Z,75.30
2019-03-16T13:27:40.718Z,74.80
2019-03-16T13:30:15.543Z,75.70
2019-03-16T13:32:44.332Z,75.30
2019-03-16T13:35:13.293Z,76.40
2019-03-16T13:37:42.154Z,76.70
2019-03-16T13:40:18.220Z,76.80
2019-03-16T13:42:47.025Z,76.60
2019-03-16T13:45:15.828Z,76.10
2019-03-16T13:47:44.600Z,76.40
2019-03-16T13:50:18.450Z,76.50
2019-03-16T13:52:47.682Z,77.20
2019-03-16T13:55:16.488Z,76.80
2019-03-16T13:57:45.365Z,77.60
2019-03-16T14:00:18.551Z,76.80
2019-03-16T14:02:47.319Z,76.80
2019-03-16T14:05:16.178Z,76.90
2019-03-16T14:07:45.358Z,77.00
2019-03-16T14:10:16.984Z,76.20
2019-03-16T14:12:45.803Z,76.20
2019-03-16T14:15:14.624Z,75.80
2019-03-16T14:17:43.762Z,75.80
2019-03-16T14:20:14.993Z,75.80
2019-03-16T14:22:43.851Z,75.90
2019-03-16T14:25:12.631Z,75.10
2019-03-16T14:27:41.487Z,75.60
2019-03-16T14:30:25.686Z,76.00
2019-03-16T14:32:45.995Z,76.30
2019-03-16T14:35:14.885Z,76.10
2019-03-16T14:37:43.743Z,76.60
2019-03-16T14:40:16.223Z,75.90
2019-03-16T14:42:45.105Z,76.70
2019-03-16T14:45:14.968Z,77.30
2019-03-16T14:47:43.744Z,77.40
2019-03-16T14:50:16.506Z,78.10
2019-03-16T14:52:45.416Z,78.30
2019-03-16T14:55:14.440Z,79.30
2019-03-16T14:57:43.285Z,79.10
2019-03-16T15:00:18.830Z,79.90
2019-03-16T15:02:47.649Z,79.00
2019-03-16T15:05:16.443Z,79.60
2019-03-16T15:07:45.300Z,79.30
2019-03-16T15:10:17.833Z,79.40
2019-03-16T15:12:46.679Z,79.30
2019-03-16T15:15:16.622Z,81.30
2019-03-16T15:17:45.474Z,81.60
2019-03-16T15:20:14.263Z,82.00
2019-03-16T15:22:43.060Z,83.40
2019-03-16T15:25:12.765Z,84.10
2019-03-16T15:27:41.526Z,85.10
2019-03-16T15:30:22.344Z,86.50
2019-03-16T15:32:51.229Z,88.00
2019-03-16T15:35:20.069Z,88.20
2019-03-16T15:37:49.019Z,89.10
2019-03-16T15:40:17.766Z,89.70
2019-03-16T15:42:46.643Z,90.30
2019-03-16T15:45:18.088Z,90.40
2019-03-16T15:47:46.869Z,90.50
2019-03-16T15:50:15.811Z,90.50
2019-03-16T15:52:44.713Z,90.70
2019-03-16T15:55:13.491Z,90.80
2019-03-16T15:57:42.946Z,90.90
2019-03-16T16:00:17.682Z,91.00
2019-03-16T16:02:46.584Z,91.10
2019-03-16T16:05:15.385Z,91.10
2019-03-16T16:07:44.300Z,91.10
2019-03-16T16:10:16.016Z,91.30
2019-03-16T16:12:45.073Z,91.40
2019-03-16T16:15:14.124Z,91.50
2019-03-16T16:17:42.993Z,91.60
2019-03-16T16:20:16.516Z,91.60
2019-03-16T16:22:45.355Z,91.80
2019-03-16T16:25:14.975Z,91.70
2019-03-16T16:27:43.718Z,91.60
2019-03-16T16:30:17.635Z,91.90
2019-03-16T16:32:46.577Z,91.40
2019-03-16T16:35:15.962Z,91.80
2019-03-16T16:37:44.972Z,92.00
2019-03-16T16:40:15.190Z,91.80
2019-03-16T16:42:44.248Z,91.90
2019-03-16T16:45:14.271Z,91.70
2019-03-16T16:47:43.106Z,91.70
2019-03-16T16:50:23.017Z,91.80
2019-03-16T16:52:51.825Z,91.90
2019-03-16T16:55:20.566Z,91.90
2019-03-16T16:57:49.475Z,91.90
2019-03-16T17:00:20.449Z,91.80
2019-03-16T17:02:49.228Z,91.90
2019-03-16T17:05:18.036Z,91.70
2019-03-16T17:07:46.876Z,91.50
2019-03-16T17:10:16.368Z,91.60
2019-03-16T17:12:45.375Z,91.70
2019-03-16T17:15:16.529Z,91.60
2019-03-16T17:17:45.308Z,91.40
2019-03-16T17:20:15.912Z,91.40
2019-03-16T17:22:44.727Z,91.30
2019-03-16T17:25:14.508Z,91.20
2019-03-16T17:27:43.472Z,91.40
2019-03-16T17:30:26.145Z,91.00
2019-03-16T17:32:55.072Z,90.90
2019-03-16T17:35:23.844Z,90.90
2019-03-16T17:37:52.641Z,91.00
2019-03-16T17:40:21.604Z,90.90
2019-03-16T17:42:50.464Z,90.90
2019-03-16T17:45:20.226Z,90.80
2019-03-16T17:47:49.066Z,91.00
2019-03-16T17:50:17.954Z,90.90
2019-03-16T17:52:46.778Z,90.90
2019-03-16T17:55:16.767Z,90.80
2019-03-16T17:57:45.886Z,90.70
2019-03-16T18:00:18.534Z,90.80
2019-03-16T18:02:51.860Z,90.70
2019-03-16T18:05:17.964Z,90.60
2019-03-16T18:07:46.876Z,90.40
2019-03-16T18:10:16.357Z,90.40
2019-03-16T18:12:45.838Z,90.30
2019-03-16T18:15:18.741Z,90.40
2019-03-16T18:17:47.806Z,90.50
2019-03-16T18:20:18.096Z,90.60
2019-03-16T18:22:47.745Z,90.50
2019-03-16T18:25:16.949Z,90.40
2019-03-16T18:27:45.685Z,90.40
2019-03-16T18:30:19.339Z,90.40
2019-03-16T18:32:48.137Z,90.30
2019-03-16T18:35:16.912Z,90.10
2019-03-16T18:37:45.726Z,90.20
2019-03-16T18:40:15.667Z,90.10
2019-03-16T18:42:44.604Z,90.10
2019-03-16T18:45:30.932Z,89.80
2019-03-16T18:47:59.814Z,89.30
2019-03-16T18:50:28.669Z,88.70
2019-03-16T18:52:57.601Z,88.80
2019-03-16T18:55:29.322Z,88.80
2019-03-16T18:57:58.096Z,88.20
2019-03-16T19:00:26.894Z,87.10
2019-03-16T19:02:56.101Z,87.20
2019-03-16T19:05:24.926Z,87.00
2019-03-16T19:07:53.826Z,87.30
2019-03-16T19:10:22.559Z,87.70
2019-03-16T19:12:51.434Z,87.80
2019-03-16T19:15:20.214Z,87.30
2019-03-16T19:17:58.793Z,86.90
2019-03-16T19:20:19.488Z,87.50
2019-03-16T19:22:48.381Z,88.00
2019-03-16T19:25:19.475Z,88.60
2019-03-16T19:27:48.336Z,88.50
2019-03-16T19:30:17.949Z,88.30
2019-03-16T19:32:46.879Z,88.40
2019-03-16T19:35:15.693Z,89.10
2019-03-16T19:37:44.610Z,89.20
2019-03-16T19:40:20.864Z,89.00
2019-03-16T19:42:49.758Z,88.20
2019-03-16T19:45:18.613Z,88.00
2019-03-16T19:47:47.511Z,88.80
2019-03-16T19:50:17.064Z,88.40
2019-03-16T19:52:45.854Z,88.30
2019-03-16T19:55:15.201Z,87.80
2019-03-16T19:57:44.072Z,86.90
2019-03-16T20:00:20.049Z,85.80
2019-03-16T20:02:51.296Z,86.10
2019-03-16T20:05:19.312Z,86.20
2019-03-16T20:07:48.172Z,86.20
2019-03-16T20:10:18.391Z,86.20
2019-03-16T20:12:47.213Z,86.90
2019-03-16T20:15:16.911Z,87.10
2019-03-16T20:17:45.827Z,87.30
2019-03-16T20:20:16.618Z,87.50
2019-03-16T20:22:45.474Z,87.50
2019-03-16T20:25:14.374Z,86.70
2019-03-16T20:27:43.151Z,86.50
2019-03-16T20:30:13.987Z,86.90
2019-03-16T20:32:42.817Z,86.80
2019-03-16T20:35:11.895Z,86.90
2019-03-16T20:37:40.715Z,86.90
2019-03-16T20:40:13.565Z,87.00
2019-03-16T20:42:42.422Z,87.10
2019-03-16T20:45:11.616Z,87.00
2019-03-16T20:47:40.489Z,87.00
2019-03-16T20:50:12.234Z,86.80
2019-03-16T20:52:50.959Z,86.20
2019-03-16T20:55:19.796Z,85.60
2019-03-16T20:57:49.943Z,85.10
2019-03-16T21:00:19.406Z,85.10
2019-03-16T21:02:48.240Z,85.10
2019-03-16T21:05:17.083Z,85.10
2019-03-16T21:07:46.182Z,85.30
2019-03-16T21:10:15.007Z,85.50
2019-03-16T21:12:43.882Z,84.50
2019-03-16T21:15:13.868Z,85.10
2019-03-16T21:17:44.840Z,84.70
2019-03-16T21:20:15.719Z,84.40
2019-03-16T21:22:44.562Z,83.90
2019-03-16T21:25:14.808Z,83.50
2019-03-16T21:27:43.641Z,83.40
2019-03-16T21:30:16.665Z,83.60
2019-03-16T21:32:45.453Z,83.80
2019-03-16T21:35:14.190Z,83.10
2019-03-16T21:37:43.198Z,83.20
2019-03-16T21:40:13.418Z,83.50
2019-03-16T21:42:42.214Z,83.50
2019-03-16T21:45:14.615Z,83.70
2019-03-16T21:47:43.452Z,84.00
2019-03-16T21:50:14.916Z,85.00
2019-03-16T21:52:44.868Z,83.40
2019-03-16T21:55:14.793Z,83.10
2019-03-16T21:57:43.605Z,83.30
2019-03-16T22:00:19.117Z,83.00
2019-03-16T22:02:47.904Z,83.20
2019-03-16T22:05:16.746Z,83.40
2019-03-16T22:07:45.622Z,83.60
2019-03-16T22:10:16.471Z,83.40
2019-03-16T22:12:45.424Z,83.10
2019-03-16T22:15:17.778Z,83.50
2019-03-16T22:17:46.666Z,84.20
2019-03-16T22:20:19.476Z,84.60
2019-03-16T22:22:48.319Z,84.80
2019-03-16T22:25:17.161Z,84.60
2019-03-16T22:27:45.948Z,85.10
2019-03-16T22:30:15.798Z,85.70
2019-03-16T22:32:44.549Z,85.80
2019-03-16T22:35:13.319Z,85.60
2019-03-16T22:37:42.196Z,85.90
2019-03-16T22:40:12.306Z,85.90
2019-03-16T22:42:41.151Z,85.80
2019-03-16T22:45:12.303Z,85.70
2019-03-16T22:47:41.145Z,85.60
2019-03-16T22:50:15.713Z,85.70
2019-03-16T22:52:44.546Z,85.60
2019-03-16T22:55:15.694Z,86.10
2019-03-16T22:57:43.793Z,86.60
2019-03-16T23:00:19.172Z,85.30
2019-03-16T23:02:47.947Z,85.20
2019-03-16T23:05:16.803Z,85.10
2019-03-16T23:07:45.657Z,85.10
2019-03-16T23:10:14.514Z,84.50
2019-03-16T23:12:43.404Z,83.80
2019-03-16T23:15:12.621Z,83.70
2019-03-16T23:17:41.382Z,83.40
2019-03-16T23:20:10.904Z,83.10
2019-03-16T23:22:39.790Z,82.50
2019-03-16T23:25:09.994Z,81.70
2019-03-16T23:27:38.908Z,81.70
2019-03-16T23:30:09.184Z,81.80
2019-03-16T23:32:38.005Z,81.30
2019-03-16T23:35:08.549Z,81.30
2019-03-16T23:37:37.309Z,81.60
2019-03-16T23:40:10.674Z,80.60
2019-03-16T23:42:39.582Z,80.80
2019-03-16T23:45:10.420Z,81.20
2019-03-16T23:47:39.231Z,81.30
2019-03-16T23:50:09.924Z,81.20
2019-03-16T23:52:38.790Z,81.50
2019-03-16T23:55:09.219Z,82.30
2019-03-16T23:57:38.408Z,82.50
